sensor_id;sensor_type;location;lat;lon;timestamp;P1;durP1;ratioP1;P2;durP2;ratioP2
39620;SDS011;25309;48.686;9.170;2023-01-28T00:00:49;10.37;;;6.57;;
39620;SDS011;25309;48.686;9.170;2023-01-28T00:03:16;11.03;;;6.77;;
39620;SDS011;25309;48.686;9.170;2023-01-28T00:05:43;10.77;;;6.70;;
39620;SDS011;25309;48.686;9.170;2023-01-28T00:08:10;9.90;;;6.17;;
39620;SDS011;25309;48.686;9.170;2023-01-28T00:10:41;10.07;;;6.40;;
39620;SDS011;25309;48.686;9.170;2023-01-28T00:13:08;9.27;;;6.00;;
39620;SDS011;25309;48.686;9.170;2023-01-28T00:15:38;8.93;;;5.70;;
39620;SDS011;25309;48.686;9.170;2023-01-28T00:18:04;10.27;;;6.43;;
39620;SDS011;25309;48.686;9.170;2023-01-28T00:20:31;10.07;;;6.40;;
39620;SDS011;25309;48.686;9.170;2023-01-28T00:23:00;9.77;;;6.17;;
39620;SDS011;25309;48.686;9.170;2023-01-28T00:25:27;10.20;;;5.93;;
39620;SDS011;25309;48.686;9.170;2023-01-28T00:27:55;9.77;;;6.27;;
39620;SDS011;25309;48.686;9.170;2023-01-28T00:30:22;11.13;;;6.13;;
39620;SDS011;25309;48.686;9.170;2023-01-28T00:32:49;8.50;;;5.90;;
39620;SDS011;25309;48.686;9.170;2023-01-28T00:35:18;9.47;;;5.60;;
39620;SDS011;25309;48.686;9.170;2023-01-28T00:37:45;8.73;;;5.67;;
39620;SDS011;25309;48.686;9.170;2023-01-28T00:40:12;8.37;;;5.47;;
39620;SDS011;25309;48.686;9.170;2023-01-28T00:42:39;8.87;;;6.37;;
39620;SDS011;25309;48.686;9.170;2023-01-28T00:45:08;7.60;;;5.20;;
39620;SDS011;25309;48.686;9.170;2023-01-28T00:47:35;9.70;;;5.90;;
39620;SDS011;25309;48.686;9.170;2023-01-28T00:50:03;8.70;;;5.80;;
39620;SDS011;25309;48.686;9.170;2023-01-28T00:52:31;8.23;;;5.53;;
39620;SDS011;25309;48.686;9.170;2023-01-28T00:54:58;9.57;;;6.00;;
39620;SDS011;25309;48.686;9.170;2023-01-28T00:57:25;8.70;;;5.40;;
39620;SDS011;25309;48.686;9.170;2023-01-28T00:59:52;9.93;;;5.77;;
39620;SDS011;25309;48.686;9.170;2023-01-28T01:02:21;9.30;;;5.80;;
39620;SDS011;25309;48.686;9.170;2023-01-28T01:04:48;8.23;;;5.17;;
39620;SDS011;25309;48.686;9.170;2023-01-28T01:07:26;10.80;;;5.97;;
39620;SDS011;25309;48.686;9.170;2023-01-28T01:10:00;7.80;;;4.77;;
39620;SDS011;25309;48.686;9.170;2023-01-28T01:12:27;7.20;;;5.00;;
39620;SDS011;25309;48.686;9.170;2023-01-28T01:14:55;9.23;;;5.70;;
39620;SDS011;25309;48.686;9.170;2023-01-28T01:17:23;8.43;;;5.13;;
39620;SDS011;25309;48.686;9.170;2023-01-28T01:19:50;9.37;;;5.43;;
39620;SDS011;25309;48.686;9.170;2023-01-28T01:22:17;8.23;;;5.03;;
39620;SDS011;25309;48.686;9.170;2023-01-28T01:24:46;8.67;;;5.33;;
39620;SDS011;25309;48.686;9.170;2023-01-28T01:27:13;8.03;;;5.00;;
39620;SDS011;25309;48.686;9.170;2023-01-28T01:29:40;8.10;;;5.37;;
39620;SDS011;25309;48.686;9.170;2023-01-28T01:32:07;9.47;;;5.30;;
39620;SDS011;25309;48.686;9.170;2023-01-28T01:34:35;8.37;;;4.90;;
39620;SDS011;25309;48.686;9.170;2023-01-28T01:37:02;7.90;;;5.20;;
39620;SDS011;25309;48.686;9.170;2023-01-28T01:39:31;9.53;;;5.27;;
39620;SDS011;25309;48.686;9.170;2023-01-28T01:41:58;9.43;;;5.73;;
39620;SDS011;25309;48.686;9.170;2023-01-28T01:47:23;8.27;;;5.37;;
39620;SDS011;25309;48.686;9.170;2023-01-28T01:49:55;8.70;;;5.47;;
39620;SDS011;25309;48.686;9.170;2023-01-28T01:52:25;8.57;;;5.37;;
39620;SDS011;25309;48.686;9.170;2023-01-28T01:54:57;9.87;;;5.87;;
39620;SDS011;25309;48.686;9.170;2023-01-28T01:57:28;8.87;;;5.30;;
39620;SDS011;25309;48.686;9.170;2023-01-28T01:59:57;8.53;;;5.03;;
39620;SDS011;25309;48.686;9.170;2023-01-28T02:02:41;8.30;;;4.83;;
39620;SDS011;25309;48.686;9.170;2023-01-28T02:05:13;8.67;;;5.30;;
39620;SDS011;25309;48.686;9.170;2023-01-28T02:07:44;8.80;;;5.10;;
39620;SDS011;25309;48.686;9.170;2023-01-28T02:10:12;7.47;;;4.47;;
39620;SDS011;25309;48.686;9.170;2023-01-28T02:12:41;7.93;;;5.10;;
39620;SDS011;25309;48.686;9.170;2023-01-28T02:15:11;8.03;;;4.90;;
39620;SDS011;25309;48.686;9.170;2023-01-28T02:17:42;8.83;;;5.27;;
39620;SDS011;25309;48.686;9.170;2023-01-28T02:20:10;8.27;;;5.10;;
39620;SDS011;25309;48.686;9.170;2023-01-28T02:28:53;7.20;;;4.57;;
39620;SDS011;25309;48.686;9.170;2023-01-28T02:31:24;8.70;;;5.03;;
39620;SDS011;25309;48.686;9.170;2023-01-28T02:33:58;7.40;;;4.70;;
39620;SDS011;25309;48.686;9.170;2023-01-28T02:36:33;8.20;;;4.87;;
39620;SDS011;25309;48.686;9.170;2023-01-28T02:39:08;7.07;;;4.67;;
39620;SDS011;25309;48.686;9.170;2023-01-28T02:41:43;8.53;;;4.90;;
39620;SDS011;25309;48.686;9.170;2023-01-28T02:44:15;7.27;;;5.00;;
39620;SDS011;25309;48.686;9.170;2023-01-28T02:46:43;7.70;;;4.97;;
39620;SDS011;25309;48.686;9.170;2023-01-28T02:49:30;6.47;;;4.67;;
39620;SDS011;25309;48.686;9.170;2023-01-28T02:52:06;7.00;;;4.50;;
39620;SDS011;25309;48.686;9.170;2023-01-28T02:54:41;7.63;;;5.27;;
39620;SDS011;25309;48.686;9.170;2023-01-28T02:57:18;7.60;;;4.60;;
39620;SDS011;25309;48.686;9.170;2023-01-28T03:00:00;7.33;;;4.97;;
39620;SDS011;25309;48.686;9.170;2023-01-28T03:02:36;7.17;;;4.70;;
39620;SDS011;25309;48.686;9.170;2023-01-28T03:05:10;7.33;;;4.97;;
39620;SDS011;25309;48.686;9.170;2023-01-28T03:07:46;6.70;;;4.57;;
39620;SDS011;25309;48.686;9.170;2023-01-28T03:10:16;7.67;;;4.90;;
39620;SDS011;25309;48.686;9.170;2023-01-28T03:12:45;7.57;;;4.87;;
39620;SDS011;25309;48.686;9.170;2023-01-28T03:15:38;9.03;;;5.00;;
39620;SDS011;25309;48.686;9.170;2023-01-28T03:18:28;8.10;;;5.10;;
39620;SDS011;25309;48.686;9.170;2023-01-28T03:21:21;7.43;;;4.77;;
39620;SDS011;25309;48.686;9.170;2023-01-28T03:24:10;8.53;;;5.07;;
39620;SDS011;25309;48.686;9.170;2023-01-28T03:27:05;8.70;;;4.93;;
39620;SDS011;25309;48.686;9.170;2023-01-28T03:30:02;7.97;;;4.93;;
39620;SDS011;25309;48.686;9.170;2023-01-28T03:32:52;7.17;;;4.90;;
39620;SDS011;25309;48.686;9.170;2023-01-28T03:35:39;6.97;;;4.60;;
39620;SDS011;25309;48.686;9.170;2023-01-28T03:38:25;8.03;;;4.97;;
39620;SDS011;25309;48.686;9.170;2023-01-28T03:41:00;8.63;;;5.27;;
39620;SDS011;25309;48.686;9.170;2023-01-28T03:43:29;8.60;;;5.23;;
39620;SDS011;25309;48.686;9.170;2023-01-28T03:45:56;8.00;;;5.10;;
39620;SDS011;25309;48.686;9.170;2023-01-28T03:48:27;8.50;;;5.47;;
39620;SDS011;25309;48.686;9.170;2023-01-28T03:50:55;8.40;;;4.90;;
39620;SDS011;25309;48.686;9.170;2023-01-28T03:53:24;7.73;;;5.10;;
39620;SDS011;25309;48.686;9.170;2023-01-28T03:55:51;8.57;;;5.37;;
39620;SDS011;25309;48.686;9.170;2023-01-28T03:58:20;8.17;;;5.10;;
39620;SDS011;25309;48.686;9.170;2023-01-28T04:00:53;7.57;;;5.27;;
39620;SDS011;25309;48.686;9.170;2023-01-28T04:03:20;8.70;;;5.17;;
39620;SDS011;25309;48.686;9.170;2023-01-28T04:06:00;8.57;;;5.40;;
39620;SDS011;25309;48.686;9.170;2023-01-28T04:08:49;8.57;;;5.60;;
39620;SDS011;25309;48.686;9.170;2023-01-28T04:11:30;8.60;;;5.77;;
39620;SDS011;25309;48.686;9.170;2023-01-28T04:13:59;7.93;;;5.43;;
39620;SDS011;25309;48.686;9.170;2023-01-28T04:16:37;8.63;;;5.33;;
39620;SDS011;25309;48.686;9.170;2023-01-28T04:19:04;8.00;;;5.47;;
39620;SDS011;25309;48.686;9.170;2023-01-28T04:21:34;7.73;;;5.77;;
39620;SDS011;25309;48.686;9.170;2023-01-28T04:24:02;10.07;;;6.47;;
39620;SDS011;25309;48.686;9.170;2023-01-28T04:26:29;8.23;;;5.53;;
39620;SDS011;25309;48.686;9.170;2023-01-28T04:28:57;9.30;;;5.80;;
39620;SDS011;25309;48.686;9.170;2023-01-28T04:31:24;8.97;;;6.20;;
39620;SDS011;25309;48.686;9.170;2023-01-28T04:34:23;8.87;;;6.07;;
39620;SDS011;25309;48.686;9.170;2023-01-28T04:37:14;9.23;;;5.83;;
39620;SDS011;25309;48.686;9.170;2023-01-28T04:40:01;9.60;;;6.27;;
39620;SDS011;25309;48.686;9.170;2023-01-28T04:42:39;10.00;;;6.47;;
39620;SDS011;25309;48.686;9.170;2023-01-28T04:45:19;9.40;;;5.70;;
39620;SDS011;25309;48.686;9.170;2023-01-28T04:48:01;8.87;;;6.10;;
39620;SDS011;25309;48.686;9.170;2023-01-28T04:51:01;9.03;;;5.93;;
39620;SDS011;25309;48.686;9.170;2023-01-28T04:53:40;8.83;;;5.80;;
39620;SDS011;25309;48.686;9.170;2023-01-28T04:56:22;9.43;;;6.20;;
39620;SDS011;25309;48.686;9.170;2023-01-28T04:58:49;8.50;;;5.40;;
39620;SDS011;25309;48.686;9.170;2023-01-28T05:01:16;9.43;;;5.90;;
39620;SDS011;25309;48.686;9.170;2023-01-28T05:03:43;8.33;;;6.10;;
39620;SDS011;25309;48.686;9.170;2023-01-28T05:06:19;9.37;;;5.40;;
39620;SDS011;25309;48.686;9.170;2023-01-28T05:08:47;9.30;;;6.30;;
39620;SDS011;25309;48.686;9.170;2023-01-28T05:11:14;8.80;;;5.80;;
39620;SDS011;25309;48.686;9.170;2023-01-28T05:13:43;10.03;;;6.10;;
39620;SDS011;25309;48.686;9.170;2023-01-28T05:16:12;9.53;;;6.10;;
39620;SDS011;25309;48.686;9.170;2023-01-28T05:18:39;10.63;;;6.47;;
39620;SDS011;25309;48.686;9.170;2023-01-28T05:21:12;9.67;;;5.90;;
39620;SDS011;25309;48.686;9.170;2023-01-28T05:23:39;9.97;;;6.17;;
39620;SDS011;25309;48.686;9.170;2023-01-28T05:26:07;9.47;;;6.50;;
39620;SDS011;25309;48.686;9.170;2023-01-28T05:28:34;9.97;;;6.60;;
39620;SDS011;25309;48.686;9.170;2023-01-28T05:31:02;10.77;;;6.23;;
39620;SDS011;25309;48.686;9.170;2023-01-28T05:33:29;8.77;;;6.13;;
39620;SDS011;25309;48.686;9.170;2023-01-28T05:35:57;9.50;;;6.43;;
39620;SDS011;25309;48.686;9.170;2023-01-28T05:38:24;9.43;;;6.20;;
39620;SDS011;25309;48.686;9.170;2023-01-28T05:40:51;9.77;;;6.73;;
39620;SDS011;25309;48.686;9.170;2023-01-28T05:43:19;9.77;;;6.43;;
39620;SDS011;25309;48.686;9.170;2023-01-28T05:46:12;10.00;;;7.10;;
39620;SDS011;25309;48.686;9.170;2023-01-28T05:49:11;9.93;;;6.53;;
39620;SDS011;25309;48.686;9.170;2023-01-28T05:51:57;10.00;;;6.47;;
39620;SDS011;25309;48.686;9.170;2023-01-28T05:54:24;8.83;;;6.27;;
39620;SDS011;25309;48.686;9.170;2023-01-28T05:56:52;9.93;;;6.63;;
39620;SDS011;25309;48.686;9.170;2023-01-28T05:59:20;9.40;;;6.30;;
39620;SDS011;25309;48.686;9.170;2023-01-28T06:01:49;10.00;;;6.60;;
39620;SDS011;25309;48.686;9.170;2023-01-28T06:04:21;10.17;;;6.40;;
39620;SDS011;25309;48.686;9.170;2023-01-28T06:06:48;10.57;;;6.23;;
39620;SDS011;25309;48.686;9.170;2023-01-28T06:09:15;10.50;;;6.70;;
39620;SDS011;25309;48.686;9.170;2023-01-28T06:11:42;10.57;;;7.10;;
39620;SDS011;25309;48.686;9.170;2023-01-28T06:14:12;9.43;;;6.60;;
39620;SDS011;25309;48.686;9.170;2023-01-28T06:16:59;12.43;;;7.53;;
39620;SDS011;25309;48.686;9.170;2023-01-28T06:19:36;9.43;;;6.63;;
39620;SDS011;25309;48.686;9.170;2023-01-28T06:22:04;10.33;;;7.00;;
39620;SDS011;25309;48.686;9.170;2023-01-28T06:24:31;9.23;;;6.90;;
39620;SDS011;25309;48.686;9.170;2023-01-28T06:26:58;9.70;;;6.57;;
39620;SDS011;25309;48.686;9.170;2023-01-28T06:29:25;10.23;;;6.33;;
39620;SDS011;25309;48.686;9.170;2023-01-28T06:31:52;9.13;;;6.23;;
39620;SDS011;25309;48.686;9.170;2023-01-28T06:34:20;11.30;;;7.23;;
39620;SDS011;25309;48.686;9.170;2023-01-28T06:36:47;9.43;;;6.33;;
39620;SDS011;25309;48.686;9.170;2023-01-28T06:39:16;9.57;;;6.40;;
39620;SDS011;25309;48.686;9.170;2023-01-28T06:41:43;9.60;;;6.23;;
39620;SDS011;25309;48.686;9.170;2023-01-28T06:44:09;10.20;;;6.60;;
39620;SDS011;25309;48.686;9.170;2023-01-28T06:46:36;9.77;;;6.00;;
39620;SDS011;25309;48.686;9.170;2023-01-28T06:49:03;10.27;;;7.07;;
39620;SDS011;25309;48.686;9.170;2023-01-28T06:51:32;8.83;;;6.27;;
39620;SDS011;25309;48.686;9.170;2023-01-28T06:53:58;9.07;;;6.27;;
39620;SDS011;25309;48.686;9.170;2023-01-28T06:56:26;8.97;;;6.13;;
39620;SDS011;25309;48.686;9.170;2023-01-28T06:58:53;9.63;;;6.47;;
39620;SDS011;25309;48.686;9.170;2023-01-28T07:01:20;9.73;;;6.17;;
39620;SDS011;25309;48.686;9.170;2023-01-28T07:03:47;9.37;;;6.40;;
39620;SDS011;25309;48.686;9.170;2023-01-28T07:06:14;9.27;;;6.47;;
39620;SDS011;25309;48.686;9.170;2023-01-28T07:08:42;10.50;;;6.60;;
39620;SDS011;25309;48.686;9.170;2023-01-28T07:11:09;10.53;;;6.43;;
39620;SDS011;25309;48.686;9.170;2023-01-28T07:13:36;10.40;;;6.70;;
39620;SDS011;25309;48.686;9.170;2023-01-28T07:16:03;9.97;;;6.63;;
39620;SDS011;25309;48.686;9.170;2023-01-28T07:18:30;9.40;;;5.80;;
39620;SDS011;25309;48.686;9.170;2023-01-28T07:20:57;8.90;;;6.23;;
39620;SDS011;25309;48.686;9.170;2023-01-28T07:23:24;11.10;;;6.40;;
39620;SDS011;25309;48.686;9.170;2023-01-28T07:25:55;9.57;;;6.53;;
39620;SDS011;25309;48.686;9.170;2023-01-28T07:28:26;10.03;;;6.77;;
39620;SDS011;25309;48.686;9.170;2023-01-28T07:30:53;10.17;;;6.63;;
39620;SDS011;25309;48.686;9.170;2023-01-28T07:33:20;9.60;;;6.50;;
39620;SDS011;25309;48.686;9.170;2023-01-28T07:35:47;11.00;;;6.83;;
39620;SDS011;25309;48.686;9.170;2023-01-28T07:38:14;10.67;;;7.00;;
39620;SDS011;25309;48.686;9.170;2023-01-28T07:40:41;9.70;;;6.60;;
39620;SDS011;25309;48.686;9.170;2023-01-28T07:43:10;9.77;;;6.53;;
39620;SDS011;25309;48.686;9.170;2023-01-28T07:45:39;10.23;;;6.67;;
39620;SDS011;25309;48.686;9.170;2023-01-28T07:48:06;12.17;;;6.37;;
39620;SDS011;25309;48.686;9.170;2023-01-28T07:50:35;11.07;;;7.10;;
39620;SDS011;25309;48.686;9.170;2023-01-28T07:53:03;11.20;;;6.87;;
39620;SDS011;25309;48.686;9.170;2023-01-28T07:55:31;10.87;;;7.30;;
39620;SDS011;25309;48.686;9.170;2023-01-28T07:58:01;10.03;;;6.90;;
39620;SDS011;25309;48.686;9.170;2023-01-28T08:00:31;10.80;;;6.93;;
39620;SDS011;25309;48.686;9.170;2023-01-28T08:03:02;11.30;;;7.23;;
39620;SDS011;25309;48.686;9.170;2023-01-28T08:05:31;10.73;;;7.00;;
39620;SDS011;25309;48.686;9.170;2023-01-28T08:08:04;11.07;;;7.23;;
39620;SDS011;25309;48.686;9.170;2023-01-28T08:10:31;10.60;;;6.73;;
39620;SDS011;25309;48.686;9.170;2023-01-28T08:12:58;9.47;;;6.17;;
39620;SDS011;25309;48.686;9.170;2023-01-28T08:15:25;12.47;;;7.57;;
39620;SDS011;25309;48.686;9.170;2023-01-28T08:17:54;10.87;;;7.33;;
39620;SDS011;25309;48.686;9.170;2023-01-28T08:20:22;10.60;;;7.17;;
39620;SDS011;25309;48.686;9.170;2023-01-28T08:22:51;12.87;;;7.97;;
39620;SDS011;25309;48.686;9.170;2023-01-28T08:25:19;11.70;;;7.67;;
39620;SDS011;25309;48.686;9.170;2023-01-28T08:27:46;11.07;;;7.33;;
39620;SDS011;25309;48.686;9.170;2023-01-28T08:30:13;11.07;;;7.53;;
39620;SDS011;25309;48.686;9.170;2023-01-28T08:32:40;10.37;;;6.73;;
39620;SDS011;25309;48.686;9.170;2023-01-28T08:35:09;11.03;;;7.47;;
39620;SDS011;25309;48.686;9.170;2023-01-28T08:37:36;12.33;;;7.63;;
39620;SDS011;25309;48.686;9.170;2023-01-28T08:40:03;11.53;;;7.60;;
39620;SDS011;25309;48.686;9.170;2023-01-28T08:42:31;12.37;;;7.73;;
39620;SDS011;25309;48.686;9.170;2023-01-28T08:44:58;11.83;;;7.83;;
39620;SDS011;25309;48.686;9.170;2023-01-28T08:47:25;9.70;;;7.20;;
39620;SDS011;25309;48.686;9.170;2023-01-28T08:49:52;14.47;;;8.33;;
39620;SDS011;25309;48.686;9.170;2023-01-28T08:52:20;11.77;;;7.83;;
39620;SDS011;25309;48.686;9.170;2023-01-28T08:54:47;14.33;;;8.40;;
39620;SDS011;25309;48.686;9.170;2023-01-28T08:57:14;11.73;;;7.87;;
39620;SDS011;25309;48.686;9.170;2023-01-28T08:59:41;11.77;;;8.17;;
39620;SDS011;25309;48.686;9.170;2023-01-28T09:02:11;12.27;;;7.30;;
39620;SDS011;25309;48.686;9.170;2023-01-28T09:04:56;12.37;;;8.17;;
39620;SDS011;25309;48.686;9.170;2023-01-28T09:07:24;12.53;;;7.87;;
39620;SDS011;25309;48.686;9.170;2023-01-28T09:09:51;11.13;;;7.70;;
39620;SDS011;25309;48.686;9.170;2023-01-28T09:12:18;11.30;;;7.83;;
39620;SDS011;25309;48.686;9.170;2023-01-28T09:14:45;12.97;;;8.50;;
39620;SDS011;25309;48.686;9.170;2023-01-28T09:17:12;13.70;;;8.10;;
39620;SDS011;25309;48.686;9.170;2023-01-28T09:19:39;13.20;;;8.60;;
39620;SDS011;25309;48.686;9.170;2023-01-28T09:22:05;12.80;;;8.23;;
39620;SDS011;25309;48.686;9.170;2023-01-28T09:24:34;12.07;;;7.83;;
39620;SDS011;25309;48.686;9.170;2023-01-28T09:27:04;12.77;;;8.03;;
39620;SDS011;25309;48.686;9.170;2023-01-28T09:29:32;13.27;;;8.50;;
39620;SDS011;25309;48.686;9.170;2023-01-28T09:31:59;11.90;;;7.53;;
39620;SDS011;25309;48.686;9.170;2023-01-28T09:34:26;14.23;;;8.60;;
39620;SDS011;25309;48.686;9.170;2023-01-28T09:36:53;12.23;;;7.73;;
39620;SDS011;25309;48.686;9.170;2023-01-28T09:39:20;12.23;;;8.27;;
39620;SDS011;25309;48.686;9.170;2023-01-28T09:41:50;12.90;;;8.37;;
39620;SDS011;25309;48.686;9.170;2023-01-28T09:44:27;12.53;;;8.23;;
39620;SDS011;25309;48.686;9.170;2023-01-28T09:47:00;15.10;;;9.00;;
39620;SDS011;25309;48.686;9.170;2023-01-28T09:49:31;13.70;;;8.47;;
39620;SDS011;25309;48.686;9.170;2023-01-28T09:52:02;11.47;;;7.73;;
39620;SDS011;25309;48.686;9.170;2023-01-28T09:54:32;11.97;;;7.80;;
39620;SDS011;25309;48.686;9.170;2023-01-28T09:57:09;13.73;;;8.80;;
39620;SDS011;25309;48.686;9.170;2023-01-28T09:59:39;11.97;;;8.13;;
39620;SDS011;25309;48.686;9.170;2023-01-28T10:04:58;13.20;;;8.70;;
39620;SDS011;25309;48.686;9.170;2023-01-28T10:07:37;12.60;;;8.67;;
39620;SDS011;25309;48.686;9.170;2023-01-28T10:10:10;12.20;;;8.43;;
39620;SDS011;25309;48.686;9.170;2023-01-28T10:12:56;13.57;;;9.13;;
39620;SDS011;25309;48.686;9.170;2023-01-28T10:15:43;13.30;;;8.33;;
39620;SDS011;25309;48.686;9.170;2023-01-28T10:18:15;12.23;;;8.57;;
39620;SDS011;25309;48.686;9.170;2023-01-28T10:20:51;11.80;;;8.30;;
39620;SDS011;25309;48.686;9.170;2023-01-28T10:23:21;12.37;;;8.93;;
39620;SDS011;25309;48.686;9.170;2023-01-28T10:25:51;13.50;;;8.43;;
39620;SDS011;25309;48.686;9.170;2023-01-28T10:28:24;12.30;;;8.77;;
39620;SDS011;25309;48.686;9.170;2023-01-28T10:30:53;14.73;;;8.77;;
39620;SDS011;25309;48.686;9.170;2023-01-28T10:33:21;13.03;;;8.80;;
39620;SDS011;25309;48.686;9.170;2023-01-28T10:35:54;13.23;;;8.53;;
39620;SDS011;25309;48.686;9.170;2023-01-28T10:38:23;12.30;;;8.67;;
39620;SDS011;25309;48.686;9.170;2023-01-28T10:40:52;14.57;;;8.53;;
39620;SDS011;25309;48.686;9.170;2023-01-28T10:43:24;13.90;;;8.73;;
39620;SDS011;25309;48.686;9.170;2023-01-28T10:45:56;12.37;;;8.43;;
39620;SDS011;25309;48.686;9.170;2023-01-28T10:48:28;13.60;;;8.97;;
39620;SDS011;25309;48.686;9.170;2023-01-28T10:50:58;13.53;;;9.13;;
39620;SDS011;25309;48.686;9.170;2023-01-28T10:53:34;13.13;;;8.90;;
39620;SDS011;25309;48.686;9.170;2023-01-28T10:56:03;12.57;;;8.20;;
39620;SDS011;25309;48.686;9.170;2023-01-28T10:58:35;11.80;;;7.87;;
39620;SDS011;25309;48.686;9.170;2023-01-28T11:01:12;13.00;;;8.50;;
39620;SDS011;25309;48.686;9.170;2023-01-28T11:03:39;13.80;;;8.77;;
39620;SDS011;25309;48.686;9.170;2023-01-28T11:06:22;15.13;;;9.20;;
39620;SDS011;25309;48.686;9.170;2023-01-28T11:08:50;14.13;;;9.33;;
39620;SDS011;25309;48.686;9.170;2023-01-28T11:11:21;13.30;;;9.00;;
39620;SDS011;25309;48.686;9.170;2023-01-28T11:13:52;12.77;;;8.53;;
39620;SDS011;25309;48.686;9.170;2023-01-28T11:16:20;17.87;;;8.30;;
39620;SDS011;25309;48.686;9.170;2023-01-28T11:18:49;13.47;;;8.30;;
39620;SDS011;25309;48.686;9.170;2023-01-28T11:21:20;13.20;;;8.90;;
39620;SDS011;25309;48.686;9.170;2023-01-28T11:23:49;14.10;;;8.43;;
39620;SDS011;25309;48.686;9.170;2023-01-28T11:26:20;13.70;;;9.00;;
39620;SDS011;25309;48.686;9.170;2023-01-28T11:28:49;14.43;;;9.20;;
39620;SDS011;25309;48.686;9.170;2023-01-28T11:31:19;15.33;;;9.73;;
39620;SDS011;25309;48.686;9.170;2023-01-28T11:33:49;15.20;;;9.93;;
39620;SDS011;25309;48.686;9.170;2023-01-28T11:36:19;14.80;;;9.53;;
39620;SDS011;25309;48.686;9.170;2023-01-28T11:38:50;14.77;;;9.53;;
39620;SDS011;25309;48.686;9.170;2023-01-28T11:41:22;15.13;;;9.27;;
39620;SDS011;25309;48.686;9.170;2023-01-28T11:43:54;17.00;;;10.03;;
39620;SDS011;25309;48.686;9.170;2023-01-28T11:49:13;15.50;;;9.90;;
39620;SDS011;25309;48.686;9.170;2023-01-28T11:51:51;15.53;;;9.80;;
39620;SDS011;25309;48.686;9.170;2023-01-28T11:54:26;16.70;;;10.57;;
39620;SDS011;25309;48.686;9.170;2023-01-28T11:57:14;16.73;;;10.30;;
39620;SDS011;25309;48.686;9.170;2023-01-28T11:59:52;17.93;;;10.30;;
39620;SDS011;25309;48.686;9.170;2023-01-28T12:02:57;17.10;;;11.03;;
39620;SDS011;25309;48.686;9.170;2023-01-28T12:05:44;15.00;;;9.37;;
39620;SDS011;25309;48.686;9.170;2023-01-28T12:08:16;14.53;;;9.17;;
39620;SDS011;25309;48.686;9.170;2023-01-28T12:10:51;16.23;;;10.03;;
39620;SDS011;25309;48.686;9.170;2023-01-28T12:13:32;16.00;;;9.30;;
39620;SDS011;25309;48.686;9.170;2023-01-28T12:16:12;14.87;;;9.50;;
39620;SDS011;25309;48.686;9.170;2023-01-28T12:25:05;16.03;;;9.23;;
39620;SDS011;25309;48.686;9.170;2023-01-28T12:27:42;15.13;;;9.63;;
39620;SDS011;25309;48.686;9.170;2023-01-28T12:30:20;14.90;;;9.57;;
39620;SDS011;25309;48.686;9.170;2023-01-28T12:32:56;15.23;;;8.97;;
39620;SDS011;25309;48.686;9.170;2023-01-28T12:35:45;14.70;;;8.70;;
39620;SDS011;25309;48.686;9.170;2023-01-28T12:38:23;13.60;;;8.43;;
39620;SDS011;25309;48.686;9.170;2023-01-28T12:40:59;13.37;;;8.13;;
39620;SDS011;25309;48.686;9.170;2023-01-28T12:43:38;13.33;;;8.43;;
39620;SDS011;25309;48.686;9.170;2023-01-28T12:46:22;16.73;;;8.77;;
39620;SDS011;25309;48.686;9.170;2023-01-28T12:48:58;13.90;;;8.40;;
39620;SDS011;25309;48.686;9.170;2023-01-28T12:51:29;14.13;;;8.77;;
39620;SDS011;25309;48.686;9.170;2023-01-28T12:54:03;12.97;;;8.60;;
39620;SDS011;25309;48.686;9.170;2023-01-28T12:56:36;15.67;;;9.33;;
39620;SDS011;25309;48.686;9.170;2023-01-28T12:59:09;14.90;;;9.17;;
39620;SDS011;25309;48.686;9.170;2023-01-28T13:01:39;13.77;;;8.70;;
39620;SDS011;25309;48.686;9.170;2023-01-28T13:04:11;14.53;;;8.10;;
39620;SDS011;25309;48.686;9.170;2023-01-28T13:06:43;15.03;;;9.47;;
39620;SDS011;25309;48.686;9.170;2023-01-28T13:09:17;15.07;;;9.27;;
39620;SDS011;25309;48.686;9.170;2023-01-28T13:11:46;16.43;;;10.27;;
39620;SDS011;25309;48.686;9.170;2023-01-28T13:14:15;16.67;;;9.83;;
39620;SDS011;25309;48.686;9.170;2023-01-28T13:16:42;16.77;;;9.93;;
39620;SDS011;25309;48.686;9.170;2023-01-28T13:19:21;17.33;;;10.90;;
39620;SDS011;25309;48.686;9.170;2023-01-28T13:21:50;16.93;;;10.20;;
39620;SDS011;25309;48.686;9.170;2023-01-28T13:24:19;17.07;;;10.50;;
39620;SDS011;25309;48.686;9.170;2023-01-28T13:26:49;16.13;;;9.77;;
39620;SDS011;25309;48.686;9.170;2023-01-28T13:29:19;17.17;;;10.30;;
39620;SDS011;25309;48.686;9.170;2023-01-28T13:31:53;16.23;;;9.60;;
39620;SDS011;25309;48.686;9.170;2023-01-28T13:34:28;17.67;;;10.27;;
39620;SDS011;25309;48.686;9.170;2023-01-28T13:37:06;17.10;;;10.20;;
39620;SDS011;25309;48.686;9.170;2023-01-28T13:39:47;15.53;;;9.87;;
39620;SDS011;25309;48.686;9.170;2023-01-28T13:42:20;17.50;;;9.83;;
39620;SDS011;25309;48.686;9.170;2023-01-28T13:44:50;16.10;;;9.23;;
39620;SDS011;25309;48.686;9.170;2023-01-28T13:47:22;16.60;;;9.40;;
39620;SDS011;25309;48.686;9.170;2023-01-28T13:49:57;14.43;;;8.60;;
39620;SDS011;25309;48.686;9.170;2023-01-28T13:52:29;14.67;;;9.07;;
39620;SDS011;25309;48.686;9.170;2023-01-28T13:55:00;14.07;;;8.00;;
39620;SDS011;25309;48.686;9.170;2023-01-28T13:57:42;13.23;;;8.03;;
39620;SDS011;25309;48.686;9.170;2023-01-28T14:00:44;13.80;;;8.40;;
39620;SDS011;25309;48.686;9.170;2023-01-28T14:03:37;12.17;;;7.90;;
39620;SDS011;25309;48.686;9.170;2023-01-28T14:06:38;12.77;;;7.47;;
39620;SDS011;25309;48.686;9.170;2023-01-28T14:12:34;9.53;;;5.60;;
39620;SDS011;25309;48.686;9.170;2023-01-28T14:15:31;8.90;;;5.20;;
39620;SDS011;25309;48.686;9.170;2023-01-28T14:18:13;8.17;;;4.77;;
39620;SDS011;25309;48.686;9.170;2023-01-28T14:20:48;7.97;;;5.10;;
39620;SDS011;25309;48.686;9.170;2023-01-28T14:23:17;7.60;;;4.90;;
39620;SDS011;25309;48.686;9.170;2023-01-28T14:25:51;8.47;;;5.17;;
39620;SDS011;25309;48.686;9.170;2023-01-28T14:28:33;7.63;;;4.80;;
39620;SDS011;25309;48.686;9.170;2023-01-28T14:31:07;7.57;;;5.10;;
39620;SDS011;25309;48.686;9.170;2023-01-28T14:33:37;9.13;;;5.40;;
39620;SDS011;25309;48.686;9.170;2023-01-28T14:36:08;8.93;;;5.73;;
39620;SDS011;25309;48.686;9.170;2023-01-28T14:38:37;8.80;;;5.90;;
39620;SDS011;25309;48.686;9.170;2023-01-28T14:41:06;7.97;;;5.70;;
39620;SDS011;25309;48.686;9.170;2023-01-28T14:43:35;8.80;;;5.43;;
39620;SDS011;25309;48.686;9.170;2023-01-28T14:46:08;8.87;;;5.50;;
39620;SDS011;25309;48.686;9.170;2023-01-28T14:48:44;8.93;;;5.53;;
39620;SDS011;25309;48.686;9.170;2023-01-28T14:51:20;8.53;;;5.67;;
39620;SDS011;25309;48.686;9.170;2023-01-28T14:54:06;8.10;;;5.30;;
39620;SDS011;25309;48.686;9.170;2023-01-28T14:56:53;10.20;;;6.40;;
39620;SDS011;25309;48.686;9.170;2023-01-28T14:59:34;11.87;;;5.93;;
39620;SDS011;25309;48.686;9.170;2023-01-28T15:02:11;10.53;;;6.33;;
39620;SDS011;25309;48.686;9.170;2023-01-28T15:04:44;10.70;;;5.47;;
39620;SDS011;25309;48.686;9.170;2023-01-28T15:07:15;10.17;;;5.80;;
39620;SDS011;25309;48.686;9.170;2023-01-28T15:09:44;8.27;;;5.80;;
39620;SDS011;25309;48.686;9.170;2023-01-28T15:12:12;9.20;;;5.60;;
39620;SDS011;25309;48.686;9.170;2023-01-28T15:14:40;8.93;;;5.80;;
39620;SDS011;25309;48.686;9.170;2023-01-28T15:17:13;8.37;;;5.60;;
39620;SDS011;25309;48.686;9.170;2023-01-28T15:19:50;10.43;;;6.07;;
39620;SDS011;25309;48.686;9.170;2023-01-28T15:22:19;9.40;;;5.73;;
39620;SDS011;25309;48.686;9.170;2023-01-28T15:24:52;9.23;;;5.87;;
39620;SDS011;25309;48.686;9.170;2023-01-28T15:27:22;7.63;;;5.30;;
39620;SDS011;25309;48.686;9.170;2023-01-28T15:29:54;8.87;;;6.10;;
39620;SDS011;25309;48.686;9.170;2023-01-28T15:32:24;10.20;;;6.20;;
39620;SDS011;25309;48.686;9.170;2023-01-28T15:34:52;10.07;;;6.87;;